sensor_id;sensor_type;location;lat;lon;timestamp;pressure;altitude;pressure_sealevel;temperature;humidity
22550;BME280;11441;57.164;-2.120;2023-02-22T00:00:57;99981.56;;;8.18;100.00
22550;BME280;11441;57.164;-2.120;2023-02-22T00:03:47;99973.25;;;8.15;100.00
22550;BME280;11441;57.164;-2.120;2023-02-22T00:06:17;99971.28;;;8.31;100.00
22550;BME280;11441;57.164;-2.120;2023-02-22T00:09:04;99964.69;;;8.52;100.00
22550;BME280;11441;57.164;-2.120;2023-02-22T00:11:34;99963.47;;;8.49;100.00
22550;BME280;11441;57.164;-2.120;2023-02-22T00:14:01;99958.94;;;8.57;100.00
22550;BME280;11441;57.164;-2.120;2023-02-22T00:16:28;99959.94;;;8.48;100.00
22550;BME280;11441;57.164;-2.120;2023-02-22T00:18:56;99966.38;;;8.40;100.00
22550;BME280;11441;57.164;-2.120;2023-02-22T00:21:42;99959.16;;;8.32;100.00
22550;BME280;11441;57.164;-2.120;2023-02-22T00:24:10;99962.44;;;8.38;100.00
22550;BME280;11441;57.164;-2.120;2023-02-22T00:26:53;99964.44;;;8.41;100.00
22550;BME280;11441;57.164;-2.120;2023-02-22T00:29:22;99971.44;;;8.38;100.00
22550;BME280;11441;57.164;-2.120;2023-02-22T00:31:49;99963.22;;;8.38;100.00
22550;BME280;11441;57.164;-2.120;2023-02-22T00:34:16;99970.66;;;8.38;100.00
22550;BME280;11441;57.164;-2.120;2023-02-22T00:36:45;99965.59;;;8.40;100.00
22550;BME280;11441;57.164;-2.120;2023-02-22T00:39:12;99963.84;;;8.47;100.00
22550;BME280;11441;57.164;-2.120;2023-02-22T00:41:39;99966.22;;;8.33;100.00
22550;BME280;11441;57.164;-2.120;2023-02-22T00:44:05;99963.22;;;8.38;100.00
22550;BME280;11441;57.164;-2.120;2023-02-22T00:46:32;99975.59;;;8.32;100.00
22550;BME280;11441;57.164;-2.120;2023-02-22T00:48:59;99969.13;;;8.56;100.00
22550;BME280;11441;57.164;-2.120;2023-02-22T00:51:26;99967.19;;;8.41;100.00
22550;BME280;11441;57.164;-2.120;2023-02-22T00:53:54;99968.47;;;8.43;100.00
22550;BME280;11441;57.164;-2.120;2023-02-22T00:56:21;99951.63;;;8.45;100.00
22550;BME280;11441;57.164;-2.120;2023-02-22T00:58:47;99967.28;;;8.44;100.00
22550;BME280;11441;57.164;-2.120;2023-02-22T01:01:14;99961.88;;;8.48;100.00
22550;BME280;11441;57.164;-2.120;2023-02-22T01:04:00;99973.47;;;8.41;100.00
22550;BME280;11441;57.164;-2.120;2023-02-22T01:06:27;99974.88;;;8.51;100.00
22550;BME280;11441;57.164;-2.120;2023-02-22T01:08:57;99967.53;;;8.55;100.00
22550;BME280;11441;57.164;-2.120;2023-02-22T01:11:23;99973.38;;;8.54;100.00
22550;BME280;11441;57.164;-2.120;2023-02-22T01:13:50;99974.44;;;8.49;100.00
22550;BME280;11441;57.164;-2.120;2023-02-22T01:16:20;99971.50;;;8.58;100.00
22550;BME280;11441;57.164;-2.120;2023-02-22T01:18:47;99975.31;;;8.53;100.00
22550;BME280;11441;57.164;-2.120;2023-02-22T01:21:14;99979.66;;;8.54;100.00
22550;BME280;11441;57.164;-2.120;2023-02-22T01:23:44;99973.03;;;8.55;100.00
22550;BME280;11441;57.164;-2.120;2023-02-22T01:26:11;99979.59;;;8.51;100.00
22550;BME280;11441;57.164;-2.120;2023-02-22T01:28:38;99978.41;;;8.52;100.00
22550;BME280;11441;57.164;-2.120;2023-02-22T01:31:05;99980.16;;;8.60;100.00
22550;BME280;11441;57.164;-2.120;2023-02-22T01:33:32;99976.59;;;8.40;100.00
22550;BME280;11441;57.164;-2.120;2023-02-22T01:35:59;99985.00;;;8.47;100.00
22550;BME280;11441;57.164;-2.120;2023-02-22T01:38:26;99980.31;;;8.31;100.00
22550;BME280;11441;57.164;-2.120;2023-02-22T01:40:53;99980.03;;;8.37;100.00
22550;BME280;11441;57.164;-2.120;2023-02-22T01:43:26;99992.22;;;8.39;100.00
22550;BME280;11441;57.164;-2.120;2023-02-22T01:46:06;99996.13;;;8.38;100.00
22550;BME280;11441;57.164;-2.120;2023-02-22T01:49:04;99999.16;;;8.49;100.00
22550;BME280;11441;57.164;-2.120;2023-02-22T01:51:36;99994.53;;;8.37;100.00
22550;BME280;11441;57.164;-2.120;2023-02-22T01:54:27;99999.31;;;8.40;100.00
22550;BME280;11441;57.164;-2.120;2023-02-22T01:57:19;99999.31;;;8.56;100.00
22550;BME280;11441;57.164;-2.120;2023-02-22T01:59:52;99992.69;;;8.57;100.00
22550;BME280;11441;57.164;-2.120;2023-02-22T02:02:21;99998.88;;;8.54;100.00
22550;BME280;11441;57.164;-2.120;2023-02-22T02:04:53;99991.22;;;8.63;100.00
22550;BME280;11441;57.164;-2.120;2023-02-22T02:07:40;99994.78;;;8.64;100.00
22550;BME280;11441;57.164;-2.120;2023-02-22T02:10:25;99990.91;;;8.49;100.00
22550;BME280;11441;57.164;-2.120;2023-02-22T02:12:52;99984.72;;;8.52;100.00
22550;BME280;11441;57.164;-2.120;2023-02-22T02:15:26;99985.00;;;8.47;100.00
22550;BME280;11441;57.164;-2.120;2023-02-22T02:18:01;99970.09;;;8.48;100.00
22550;BME280;11441;57.164;-2.120;2023-02-22T02:23:52;99974.53;;;8.53;100.00
22550;BME280;11441;57.164;-2.120;2023-02-22T02:37:18;99957.81;;;8.42;100.00
22550;BME280;11441;57.164;-2.120;2023-02-22T02:39:52;99964.63;;;8.32;100.00
22550;BME280;11441;57.164;-2.120;2023-02-22T02:42:31;99959.56;;;8.34;100.00
22550;BME280;11441;57.164;-2.120;2023-02-22T02:45:07;99960.13;;;8.40;100.00
22550;BME280;11441;57.164;-2.120;2023-02-22T02:47:41;99954.19;;;8.54;100.00
22550;BME280;11441;57.164;-2.120;2023-02-22T02:50:15;99956.56;;;8.39;100.00
22550;BME280;11441;57.164;-2.120;2023-02-22T02:52:45;99963.66;;;8.40;100.00
22550;BME280;11441;57.164;-2.120;2023-02-22T02:55:12;99962.03;;;8.39;100.00
22550;BME280;11441;57.164;-2.120;2023-02-22T02:57:40;99966.56;;;8.47;100.00
22550;BME280;11441;57.164;-2.120;2023-02-22T03:00:07;99976.75;;;8.47;100.00
22550;BME280;11441;57.164;-2.120;2023-02-22T03:11:01;99975.88;;;8.43;100.00
22550;BME280;11441;57.164;-2.120;2023-02-22T03:16:33;99978.59;;;8.59;100.00
22550;BME280;11441;57.164;-2.120;2023-02-22T03:21:46;99985.81;;;8.67;100.00
22550;BME280;11441;57.164;-2.120;2023-02-22T03:24:26;99989.81;;;8.70;100.00
22550;BME280;11441;57.164;-2.120;2023-02-22T03:27:07;99991.56;;;8.78;100.00
22550;BME280;11441;57.164;-2.120;2023-02-22T03:29:43;100027.44;;;8.69;100.00
22550;BME280;11441;57.164;-2.120;2023-02-22T03:32:34;100027.53;;;8.41;100.00
22550;BME280;11441;57.164;-2.120;2023-02-22T03:35:25;100042.44;;;8.40;100.00
22550;BME280;11441;57.164;-2.120;2023-02-22T03:37:55;100036.94;;;8.56;100.00
22550;BME280;11441;57.164;-2.120;2023-02-22T03:40:27;100050.31;;;8.09;100.00
22550;BME280;11441;57.164;-2.120;2023-02-22T03:43:05;100039.34;;;7.93;100.00
22550;BME280;11441;57.164;-2.120;2023-02-22T03:45:39;100052.34;;;7.81;100.00
22550;BME280;11441;57.164;-2.120;2023-02-22T03:48:38;100048.81;;;7.96;100.00
22550;BME280;11441;57.164;-2.120;2023-02-22T03:51:28;100046.50;;;7.82;100.00
22550;BME280;11441;57.164;-2.120;2023-02-22T03:53:59;100044.28;;;7.88;100.00
22550;BME280;11441;57.164;-2.120;2023-02-22T03:56:37;100052.16;;;7.73;100.00
22550;BME280;11441;57.164;-2.120;2023-02-22T03:59:07;100050.31;;;7.93;100.00
22550;BME280;11441;57.164;-2.120;2023-02-22T04:01:35;100053.41;;;7.92;100.00
22550;BME280;11441;57.164;-2.120;2023-02-22T04:04:02;100054.72;;;7.66;100.00
22550;BME280;11441;57.164;-2.120;2023-02-22T04:06:30;100071.03;;;7.63;100.00
22550;BME280;11441;57.164;-2.120;2023-02-22T04:08:58;100071.97;;;7.39;100.00
22550;BME280;11441;57.164;-2.120;2023-02-22T04:11:25;100077.19;;;7.44;100.00
22550;BME280;11441;57.164;-2.120;2023-02-22T04:13:53;100076.53;;;7.34;100.00
22550;BME280;11441;57.164;-2.120;2023-02-22T04:16:20;100072.44;;;7.28;100.00
22550;BME280;11441;57.164;-2.120;2023-02-22T04:18:49;100079.50;;;7.29;100.00
22550;BME280;11441;57.164;-2.120;2023-02-22T04:21:17;100066.91;;;7.12;100.00
22550;BME280;11441;57.164;-2.120;2023-02-22T04:23:47;100075.59;;;7.02;100.00
22550;BME280;11441;57.164;-2.120;2023-02-22T04:26:14;100073.31;;;7.04;100.00
22550;BME280;11441;57.164;-2.120;2023-02-22T04:28:44;100079.84;;;6.87;100.00
22550;BME280;11441;57.164;-2.120;2023-02-22T04:31:16;100075.28;;;6.91;100.00
22550;BME280;11441;57.164;-2.120;2023-02-22T04:33:44;100067.34;;;6.61;100.00
22550;BME280;11441;57.164;-2.120;2023-02-22T04:36:14;100065.59;;;6.82;100.00
22550;BME280;11441;57.164;-2.120;2023-02-22T04:38:43;100071.09;;;6.82;100.00
22550;BME280;11441;57.164;-2.120;2023-02-22T04:41:10;100075.41;;;6.83;100.00
22550;BME280;11441;57.164;-2.120;2023-02-22T04:43:38;100063.00;;;6.73;100.00
22550;BME280;11441;57.164;-2.120;2023-02-22T04:46:13;100074.75;;;6.61;100.00
22550;BME280;11441;57.164;-2.120;2023-02-22T04:48:40;100068.38;;;6.45;100.00
22550;BME280;11441;57.164;-2.120;2023-02-22T04:51:07;100077.16;;;6.50;100.00
22550;BME280;11441;57.164;-2.120;2023-02-22T04:53:35;100075.09;;;6.47;100.00
22550;BME280;11441;57.164;-2.120;2023-02-22T04:56:02;100077.84;;;6.47;100.00
22550;BME280;11441;57.164;-2.120;2023-02-22T04:58:30;100090.16;;;6.41;100.00
22550;BME280;11441;57.164;-2.120;2023-02-22T05:00:57;100083.63;;;6.21;100.00
22550;BME280;11441;57.164;-2.120;2023-02-22T05:03:26;100091.84;;;6.33;100.00
22550;BME280;11441;57.164;-2.120;2023-02-22T05:05:52;100093.34;;;6.31;100.00
22550;BME280;11441;57.164;-2.120;2023-02-22T05:08:19;100079.56;;;6.27;100.00
22550;BME280;11441;57.164;-2.120;2023-02-22T05:10:46;100080.34;;;6.40;100.00
22550;BME280;11441;57.164;-2.120;2023-02-22T05:13:31;100082.84;;;6.33;100.00
22550;BME280;11441;57.164;-2.120;2023-02-22T05:15:58;100085.94;;;6.31;100.00
22550;BME280;11441;57.164;-2.120;2023-02-22T05:18:25;100091.41;;;6.31;100.00
22550;BME280;11441;57.164;-2.120;2023-02-22T05:20:52;100093.53;;;6.13;100.00
22550;BME280;11441;57.164;-2.120;2023-02-22T05:23:18;100099.03;;;6.26;100.00
22550;BME280;11441;57.164;-2.120;2023-02-22T05:25:45;100099.34;;;6.12;100.00
22550;BME280;11441;57.164;-2.120;2023-02-22T05:28:13;100109.47;;;6.11;100.00
22550;BME280;11441;57.164;-2.120;2023-02-22T05:30:41;100109.63;;;5.94;100.00
22550;BME280;11441;57.164;-2.120;2023-02-22T05:33:08;100119.38;;;6.03;100.00
22550;BME280;11441;57.164;-2.120;2023-02-22T05:35:36;100119.28;;;6.12;100.00
22550;BME280;11441;57.164;-2.120;2023-02-22T05:38:03;100124.28;;;5.98;100.00
22550;BME280;11441;57.164;-2.120;2023-02-22T05:40:31;100124.06;;;6.03;100.00
22550;BME280;11441;57.164;-2.120;2023-02-22T05:42:58;100122.56;;;6.06;100.00
22550;BME280;11441;57.164;-2.120;2023-02-22T05:45:27;100130.19;;;6.00;100.00
22550;BME280;11441;57.164;-2.120;2023-02-22T05:47:54;100133.94;;;5.74;100.00
22550;BME280;11441;57.164;-2.120;2023-02-22T05:50:21;100133.91;;;5.95;100.00
22550;BME280;11441;57.164;-2.120;2023-02-22T05:52:50;100128.03;;;5.72;100.00
22550;BME280;11441;57.164;-2.120;2023-02-22T05:55:19;100137.16;;;5.55;100.00
22550;BME280;11441;57.164;-2.120;2023-02-22T05:57:47;100128.84;;;5.52;100.00
22550;BME280;11441;57.164;-2.120;2023-02-22T06:00:23;100128.56;;;5.65;100.00
22550;BME280;11441;57.164;-2.120;2023-02-22T06:03:02;100132.38;;;5.73;100.00
22550;BME280;11441;57.164;-2.120;2023-02-22T06:05:29;100130.34;;;5.82;100.00
22550;BME280;11441;57.164;-2.120;2023-02-22T06:07:57;100131.88;;;5.71;100.00
22550;BME280;11441;57.164;-2.120;2023-02-22T06:10:24;100126.41;;;5.71;100.00
22550;BME280;11441;57.164;-2.120;2023-02-22T06:12:52;100133.41;;;5.81;100.00
22550;BME280;11441;57.164;-2.120;2023-02-22T06:15:21;100135.13;;;5.85;100.00
22550;BME280;11441;57.164;-2.120;2023-02-22T06:17:48;100127.09;;;5.68;100.00
22550;BME280;11441;57.164;-2.120;2023-02-22T06:20:18;100136.81;;;5.78;100.00
22550;BME280;11441;57.164;-2.120;2023-02-22T06:22:46;100144.47;;;5.84;100.00
22550;BME280;11441;57.164;-2.120;2023-02-22T06:25:16;100144.78;;;5.83;100.00
22550;BME280;11441;57.164;-2.120;2023-02-22T06:28:01;100150.38;;;5.86;100.00
22550;BME280;11441;57.164;-2.120;2023-02-22T06:30:29;100150.59;;;5.81;100.00
22550;BME280;11441;57.164;-2.120;2023-02-22T06:32:56;100156.75;;;5.78;100.00
22550;BME280;11441;57.164;-2.120;2023-02-22T06:35:23;100156.53;;;5.83;100.00
22550;BME280;11441;57.164;-2.120;2023-02-22T06:37:50;100161.28;;;5.74;100.00
22550;BME280;11441;57.164;-2.120;2023-02-22T06:40:16;100157.66;;;5.82;100.00
22550;BME280;11441;57.164;-2.120;2023-02-22T06:42:46;100162.09;;;5.75;100.00
22550;BME280;11441;57.164;-2.120;2023-02-22T06:45:14;100158.00;;;5.81;100.00
22550;BME280;11441;57.164;-2.120;2023-02-22T06:47:41;100168.00;;;5.77;100.00
22550;BME280;11441;57.164;-2.120;2023-02-22T06:50:25;100169.06;;;5.84;100.00
22550;BME280;11441;57.164;-2.120;2023-02-22T06:52:52;100176.88;;;5.74;100.00
22550;BME280;11441;57.164;-2.120;2023-02-22T06:55:20;100178.69;;;5.70;100.00
22550;BME280;11441;57.164;-2.120;2023-02-22T06:57:47;100183.59;;;5.76;100.00
22550;BME280;11441;57.164;-2.120;2023-02-22T07:00:19;100181.94;;;5.84;100.00
22550;BME280;11441;57.164;-2.120;2023-02-22T07:02:46;100182.06;;;5.88;100.00
22550;BME280;11441;57.164;-2.120;2023-02-22T07:05:15;100189.53;;;5.57;100.00
22550;BME280;11441;57.164;-2.120;2023-02-22T07:07:42;100195.75;;;5.45;100.00
22550;BME280;11441;57.164;-2.120;2023-02-22T07:10:17;100189.00;;;5.64;100.00
22550;BME280;11441;57.164;-2.120;2023-02-22T07:12:44;100193.75;;;5.55;100.00
22550;BME280;11441;57.164;-2.120;2023-02-22T07:15:11;100189.69;;;5.61;100.00
22550;BME280;11441;57.164;-2.120;2023-02-22T07:17:57;100194.78;;;5.62;100.00
22550;BME280;11441;57.164;-2.120;2023-02-22T07:20:25;100196.94;;;5.57;100.00
22550;BME280;11441;57.164;-2.120;2023-02-22T07:22:52;100196.28;;;5.60;100.00
22550;BME280;11441;57.164;-2.120;2023-02-22T07:25:19;100201.66;;;5.47;100.00
22550;BME280;11441;57.164;-2.120;2023-02-22T07:27:47;100212.34;;;5.61;100.00
22550;BME280;11441;57.164;-2.120;2023-02-22T07:30:28;100219.88;;;5.43;100.00
22550;BME280;11441;57.164;-2.120;2023-02-22T07:33:01;100215.66;;;5.46;100.00
22550;BME280;11441;57.164;-2.120;2023-02-22T07:35:33;100206.16;;;5.52;100.00
22550;BME280;11441;57.164;-2.120;2023-02-22T07:38:05;100221.59;;;5.48;100.00
22550;BME280;11441;57.164;-2.120;2023-02-22T07:40:34;100223.38;;;5.44;100.00
22550;BME280;11441;57.164;-2.120;2023-02-22T07:45:42;100241.31;;;5.24;100.00
22550;BME280;11441;57.164;-2.120;2023-02-22T07:48:10;100236.31;;;5.56;100.00
22550;BME280;11441;57.164;-2.120;2023-02-22T07:50:38;100239.84;;;5.35;100.00
22550;BME280;11441;57.164;-2.120;2023-02-22T07:53:10;100254.59;;;5.34;100.00
22550;BME280;11441;57.164;-2.120;2023-02-22T07:55:38;100245.66;;;5.25;100.00
22550;BME280;11441;57.164;-2.120;2023-02-22T07:58:07;100253.88;;;5.25;100.00
22550;BME280;11441;57.164;-2.120;2023-02-22T08:00:53;100267.38;;;5.21;100.00
22550;BME280;11441;57.164;-2.120;2023-02-22T08:03:22;100271.41;;;5.15;100.00
22550;BME280;11441;57.164;-2.120;2023-02-22T08:05:54;100273.91;;;5.29;100.00
22550;BME280;11441;57.164;-2.120;2023-02-22T08:08:21;100291.63;;;5.23;100.00
22550;BME280;11441;57.164;-2.120;2023-02-22T08:10:49;100291.13;;;5.29;100.00
22550;BME280;11441;57.164;-2.120;2023-02-22T08:13:17;100292.31;;;5.41;100.00
22550;BME280;11441;57.164;-2.120;2023-02-22T08:15:45;100296.84;;;5.37;100.00
22550;BME280;11441;57.164;-2.120;2023-02-22T08:18:17;100303.63;;;5.31;100.00
22550;BME280;11441;57.164;-2.120;2023-02-22T08:20:46;100303.94;;;5.29;100.00
22550;BME280;11441;57.164;-2.120;2023-02-22T08:23:14;100321.00;;;5.26;100.00
22550;BME280;11441;57.164;-2.120;2023-02-22T08:25:41;100315.66;;;5.38;100.00
22550;BME280;11441;57.164;-2.120;2023-02-22T08:28:11;100325.00;;;5.28;100.00
22550;BME280;11441;57.164;-2.120;2023-02-22T08:30:39;100321.00;;;5.26;100.00
22550;BME280;11441;57.164;-2.120;2023-02-22T08:33:10;100318.75;;;5.28;100.00
22550;BME280;11441;57.164;-2.120;2023-02-22T08:35:40;100329.16;;;5.35;100.00
22550;BME280;11441;57.164;-2.120;2023-02-22T08:38:07;100328.84;;;5.27;100.00
22550;BME280;11441;57.164;-2.120;2023-02-22T08:40:40;100331.53;;;5.36;100.00
22550;BME280;11441;57.164;-2.120;2023-02-22T08:43:07;100338.50;;;5.25;100.00
22550;BME280;11441;57.164;-2.120;2023-02-22T08:45:34;100335.78;;;5.25;100.00
22550;BME280;11441;57.164;-2.120;2023-02-22T08:48:00;100336.50;;;5.43;100.00
22550;BME280;11441;57.164;-2.120;2023-02-22T08:50:29;100331.41;;;5.33;100.00
22550;BME280;11441;57.164;-2.120;2023-02-22T08:53:00;100337.69;;;5.33;100.00
22550;BME280;11441;57.164;-2.120;2023-02-22T08:55:33;100345.09;;;5.24;100.00
22550;BME280;11441;57.164;-2.120;2023-02-22T08:58:01;100348.50;;;5.21;100.00
22550;BME280;11441;57.164;-2.120;2023-02-22T09:00:32;100347.88;;;5.06;100.00
22550;BME280;11441;57.164;-2.120;2023-02-22T09:03:00;100355.25;;;5.15;100.00
22550;BME280;11441;57.164;-2.120;2023-02-22T09:05:28;100352.06;;;5.13;100.00
22550;BME280;11441;57.164;-2.120;2023-02-22T09:07:57;100347.03;;;5.23;100.00
22550;BME280;11441;57.164;-2.120;2023-02-22T09:10:26;100353.59;;;5.22;100.00
22550;BME280;11441;57.164;-2.120;2023-02-22T09:12:54;100363.59;;;5.18;100.00
22550;BME280;11441;57.164;-2.120;2023-02-22T09:15:22;100367.94;;;5.19;100.00
22550;BME280;11441;57.164;-2.120;2023-02-22T09:17:50;100367.56;;;5.29;100.00
22550;BME280;11441;57.164;-2.120;2023-02-22T09:20:19;100365.09;;;5.45;100.00
22550;BME280;11441;57.164;-2.120;2023-02-22T09:22:47;100369.78;;;5.36;100.00
22550;BME280;11441;57.164;-2.120;2023-02-22T09:25:15;100366.44;;;5.31;100.00
22550;BME280;11441;57.164;-2.120;2023-02-22T09:27:46;100366.97;;;5.54;100.00
22550;BME280;11441;57.164;-2.120;2023-02-22T09:30:25;100365.25;;;5.49;100.00
22550;BME280;11441;57.164;-2.120;2023-02-22T09:32:54;100360.88;;;5.48;100.00
22550;BME280;11441;57.164;-2.120;2023-02-22T09:35:23;100378.75;;;5.45;100.00
22550;BME280;11441;57.164;-2.120;2023-02-22T09:37:57;100373.63;;;5.44;100.00
22550;BME280;11441;57.164;-2.120;2023-02-22T09:40:27;100385.25;;;5.23;100.00
22550;BME280;11441;57.164;-2.120;2023-02-22T09:48:06;100391.97;;;5.35;100.00
22550;BME280;11441;57.164;-2.120;2023-02-22T09:50:48;100390.19;;;5.39;100.00
22550;BME280;11441;57.164;-2.120;2023-02-22T09:53:39;100390.03;;;5.35;100.00
22550;BME280;11441;57.164;-2.120;2023-02-22T09:56:25;100395.94;;;5.46;100.00
22550;BME280;11441;57.164;-2.120;2023-02-22T09:58:58;100395.44;;;5.53;100.00
22550;BME280;11441;57.164;-2.120;2023-02-22T10:07:22;100401.19;;;5.60;100.00
22550;BME280;11441;57.164;-2.120;2023-02-22T10:09:52;100398.44;;;5.60;100.00
22550;BME280;11441;57.164;-2.120;2023-02-22T10:12:36;100405.50;;;5.70;100.00
22550;BME280;11441;57.164;-2.120;2023-02-22T10:23:31;100404.41;;;5.53;100.00
22550;BME280;11441;57.164;-2.120;2023-02-22T10:31:29;100416.88;;;5.72;100.00
22550;BME280;11441;57.164;-2.120;2023-02-22T10:34:01;100421.06;;;5.69;100.00
22550;BME280;11441;57.164;-2.120;2023-02-22T10:36:52;100413.44;;;5.83;100.00
22550;BME280;11441;57.164;-2.120;2023-02-22T10:39:34;100392.00;;;5.64;100.00
22550;BME280;11441;57.164;-2.120;2023-02-22T10:42:05;100424.34;;;5.92;100.00
22550;BME280;11441;57.164;-2.120;2023-02-22T10:44:34;100424.16;;;5.89;100.00
22550;BME280;11441;57.164;-2.120;2023-02-22T10:47:05;100419.84;;;5.96;100.00
22550;BME280;11441;57.164;-2.120;2023-02-22T10:49:38;100415.19;;;5.88;100.00
22550;BME280;11441;57.164;-2.120;2023-02-22T10:52:33;100414.97;;;6.02;100.00
22550;BME280;11441;57.164;-2.120;2023-02-22T10:55:02;100420.97;;;6.16;100.00
22550;BME280;11441;57.164;-2.120;2023-02-22T10:57:44;100426.94;;;6.18;100.00
22550;BME280;11441;57.164;-2.120;2023-02-22T11:00:28;100424.16;;;6.27;100.00
22550;BME280;11441;57.164;-2.120;2023-02-22T11:03:19;100436.41;;;6.21;100.00
22550;BME280;11441;57.164;-2.120;2023-02-22T11:05:48;100433.88;;;6.37;100.00
22550;BME280;11441;57.164;-2.120;2023-02-22T11:08:33;100437.47;;;6.29;100.00
22550;BME280;11441;57.164;-2.120;2023-02-22T11:11:02;100445.09;;;6.44;100.00
22550;BME280;11441;57.164;-2.120;2023-02-22T11:13:53;100438.69;;;6.61;100.00
22550;BME280;11441;57.164;-2.120;2023-02-22T11:16:34;100443.25;;;6.57;100.00
22550;BME280;11441;57.164;-2.120;2023-02-22T11:19:10;100442.16;;;6.49;100.00
22550;BME280;11441;57.164;-2.120;2023-02-22T11:21:38;100455.13;;;6.61;100.00
22550;BME280;11441;57.164;-2.120;2023-02-22T11:24:08;100451.00;;;6.55;100.00
22550;BME280;11441;57.164;-2.120;2023-02-22T11:26:47;100452.31;;;6.49;100.00
22550;BME280;11441;57.164;-2.120;2023-02-22T11:29:35;100456.16;;;6.69;100.00
22550;BME280;11441;57.164;-2.120;2023-02-22T11:32:12;100456.03;;;6.65;100.00
22550;BME280;11441;57.164;-2.120;2023-02-22T11:34:41;100462.72;;;6.76;100.00
22550;BME280;11441;57.164;-2.120;2023-02-22T11:39:48;100466.50;;;6.84;100.00
22550;BME280;11441;57.164;-2.120;2023-02-22T11:42:29;100476.19;;;7.03;100.00
22550;BME280;11441;57.164;-2.120;2023-02-22T11:45:14;100479.41;;;6.84;100.00
22550;BME280;11441;57.164;-2.120;2023-02-22T11:48:02;100480.19;;;6.84;100.00
22550;BME280;11441;57.164;-2.120;2023-02-22T11:50:38;100486.44;;;6.72;100.00
22550;BME280;11441;57.164;-2.120;2023-02-22T11:56:47;100488.91;;;6.86;100.00
22550;BME280;11441;57.164;-2.120;2023-02-22T11:59:17;100485.28;;;6.94;100.00
22550;BME280;11441;57.164;-2.120;2023-02-22T12:02:07;100488.88;;;7.07;100.00
22550;BME280;11441;57.164;-2.120;2023-02-22T12:04:55;100499.34;;;7.05;100.00
22550;BME280;11441;57.164;-2.120;2023-02-22T12:08:14;100490.13;;;7.10;100.00
22550;BME280;11441;57.164;-2.120;2023-02-22T12:21:36;100503.28;;;7.16;100.00
22550;BME280;11441;57.164;-2.120;2023-02-22T12:24:07;100503.56;;;7.03;100.00
22550;BME280;11441;57.164;-2.120;2023-02-22T12:26:42;100499.47;;;7.09;100.00
22550;BME280;11441;57.164;-2.120;2023-02-22T12:29:29;100515.41;;;7.28;100.00
22550;BME280;11441;57.164;-2.120;2023-02-22T12:32:07;100514.06;;;7.34;100.00
22550;BME280;11441;57.164;-2.120;2023-02-22T12:34:41;100513.56;;;7.20;100.00
22550;BME280;11441;57.164;-2.120;2023-02-22T12:37:34;100514.91;;;7.13;100.00
22550;BME280;11441;57.164;-2.120;2023-02-22T12:40:20;100515.19;;;7.33;100.00
22550;BME280;11441;57.164;-2.120;2023-02-22T12:42:52;100525.31;;;7.20;100.00
22550;BME280;11441;57.164;-2.120;2023-02-22T12:45:45;100523.25;;;7.17;100.00
22550;BME280;11441;57.164;-2.120;2023-02-22T12:50:54;100533.47;;;7.29;100.00
22550;BME280;11441;57.164;-2.120;2023-02-22T12:53:30;100538.81;;;7.25;100.00
22550;BME280;11441;57.164;-2.120;2023-02-22T12:56:23;100544.97;;;7.22;100.00
22550;BME280;11441;57.164;-2.120;2023-02-22T12:59:04;100545.09;;;7.26;100.00
22550;BME280;11441;57.164;-2.120;2023-02-22T13:01:43;100546.03;;;7.30;100.00
22550;BME280;11441;57.164;-2.120;2023-02-22T13:04:11;100554.44;;;7.46;100.00
22550;BME280;11441;57.164;-2.120;2023-02-22T13:18:55;100580.22;;;7.45;100.00
22550;BME280;11441;57.164;-2.120;2023-02-22T13:21:41;100585.94;;;7.52;100.00
22550;BME280;11441;57.164;-2.120;2023-02-22T13:24:25;100572.03;;;7.57;100.00
22550;BME280;11441;57.164;-2.120;2023-02-22T13:27:00;100595.94;;;7.35;100.00
22550;BME280;11441;57.164;-2.120;2023-02-22T13:29:33;100596.31;;;7.46;100.00
22550;BME280;11441;57.164;-2.120;2023-02-22T13:34:55;100597.53;;;7.36;100.00
22550;BME280;11441;57.164;-2.120;2023-02-22T13:49:54;100615.19;;;7.27;100.00
22550;BME280;11441;57.164;-2.120;2023-02-22T13:52:43;100620.13;;;7.33;100.00
22550;BME280;11441;57.164;-2.120;2023-02-22T13:55:19;100624.38;;;7.43;100.00
22550;BME280;11441;57.164;-2.120;2023-02-22T13:57:48;100628.50;;;7.37;100.00
22550;BME280;11441;57.164;-2.120;2023-02-22T14:00:18;100647.34;;;7.39;100.00
22550;BME280;11441;57.164;-2.120;2023-02-22T14:11:38;100640.69;;;7.40;100.00
22550;BME280;11441;57.164;-2.120;2023-02-22T14:16:26;100651.66;;;7.40;100.00
22550;BME280;11441;57.164;-2.120;2023-02-22T14:19:11;100654.88;;;7.42;100.00
22550;BME280;11441;57.164;-2.120;2023-02-22T14:22:05;100640.94;;;7.68;100.00
22550;BME280;11441;57.164;-2.120;2023-02-22T14:24:42;100653.97;;;7.71;100.00
22550;BME280;11441;57.164;-2.120;2023-02-22T14:27:12;100647.19;;;7.56;100.00
22550;BME280;11441;57.164;-2.120;2023-02-22T14:32:44;100657.34;;;7.55;100.00
22550;BME280;11441;57.164;-2.120;2023-02-22T14:35:15;100669.66;;;7.49;100.00
22550;BME280;11441;57.164;-2.120;2023-02-22T14:37:58;100668.72;;;7.66;100.00
22550;BME280;11441;57.164;-2.120;2023-02-22T14:40:29;100664.16;;;7.70;100.00
22550;BME280;11441;57.164;-2.120;2023-02-22T14:43:10;100682.50;;;7.58;100.00
22550;BME280;11441;57.164;-2.120;2023-02-22T14:45:56;100689.81;;;7.66;100.00
22550;BME280;11441;57.164;-2.120;2023-02-22T14:48:34;100680.22;;;7.60;100.00
22550;BME280;11441;57.164;-2.120;2023-02-22T14:51:22;100688.84;;;7.49;100.00
22550;BME280;11441;57.164;-2.120;2023-02-22T14:54:14;100708.09;;;7.41;100.00
22550;BME280;11441;57.164;-2.120;2023-02-22T14:56:56;100707.81;;;7.33;100.00
22550;BME280;11441;57.164;-2.120;2023-02-22T14:59:26;100709.72;;;7.33;100.00
22550;BME280;11441;57.164;-2.120;2023-02-22T15:02:11;100698.50;;;7.47;100.00
22550;BME280;11441;57.164;-2.120;2023-02-22T15:04:57;100707.19;;;7.49;100.00
22550;BME280;11441;57.164;-2.120;2023-02-22T15:07:27;100710.28;;;7.47;100.00
22550;BME280;11441;57.164;-2.120;2023-02-22T15:10:28;100723.38;;;7.42;100.00